Auke Bay, Alaska
Current Conditions -  °F | °C
As of 12:53 AM on Tuesday 21 Oct 2014 (Local Time) from PAJN Reporting Station
Few Clouds Few Clouds  
Wind Chill:   Ceiling: Unl
Heat Index:   Visibility: 10mi
Dew Point:   Wind: 8mph
Humidity: 89%   Direction: 80°E
Pressure: 29.41"   Gusts: NA
Location:  58.38°N, 134.67°W
Report Text: PAJN 210853Z 08007KT 10SM FEW029 FEW044 FEW065 07/05 A2941 RMK AO2 SLP959 T00670050 400890067 51004
Loading
Personal Weather Stations






























Interactive Weather Map
Tropical Storm Tracking
New forecast layout! Learn more

10-Day Weather Forecast

Advertisements
Track Severe Weather on mobile